createdAt,value
2023-05-13T00:00:36.402Z,1.2
2023-05-13T00:01:46.127Z,0.9
2023-05-13T00:02:54.926Z,1.2
2023-05-13T00:04:03.545Z,0.7
2023-05-13T00:05:13.176Z,1
2023-05-13T00:06:20.913Z,0.8
2023-05-13T00:07:28.540Z,0.7
2023-05-13T00:08:38.204Z,0.9
2023-05-13T00:09:46.907Z,0.8
2023-05-13T00:10:56.533Z,1
2023-05-13T00:12:06.286Z,0.9
2023-05-13T00:13:15.985Z,0.9
2023-05-13T00:14:25.612Z,0.8
2023-05-13T00:15:34.267Z,0.9
2023-05-13T00:16:43.048Z,0.9
2023-05-13T00:17:51.691Z,1
2023-05-13T00:18:59.331Z,0.8
2023-05-13T00:20:08.976Z,1
2023-05-13T00:21:16.680Z,1.3
2023-05-13T00:22:26.321Z,0.9
2023-05-13T00:23:35.973Z,0.7
2023-05-13T00:24:45.640Z,1.1
2023-05-13T00:25:54.411Z,0.7
2023-05-13T00:27:04.021Z,0.6
2023-05-13T00:28:11.673Z,1
2023-05-13T00:29:21.334Z,0.9
2023-05-13T00:30:30.042Z,1.1
2023-05-13T00:31:37.803Z,1
2023-05-13T00:32:47.359Z,1
2023-05-13T00:33:56.990Z,1.3
2023-05-13T00:35:05.678Z,1
2023-05-13T00:36:15.315Z,1.1
2023-05-13T00:37:22.966Z,1.4
2023-05-13T00:38:32.626Z,1.1
2023-05-13T00:39:42.301Z,0.9
2023-05-13T00:40:52.035Z,1.1
2023-05-13T00:42:01.716Z,1.2
2023-05-13T00:43:10.348Z,1.3
2023-05-13T00:44:20.079Z,1.2
2023-05-13T00:45:29.758Z,1.1
2023-05-13T00:46:38.412Z,1.3
2023-05-13T00:47:48.133Z,1.1
2023-05-13T00:48:56.800Z,1.3
2023-05-13T00:50:04.450Z,1.4
2023-05-13T00:51:14.090Z,1.2
2023-05-13T00:52:21.746Z,1.1
2023-05-13T00:53:31.446Z,1.1
2023-05-13T00:54:41.135Z,1.7
2023-05-13T00:55:49.770Z,1.2
2023-05-13T00:56:59.438Z,1.5
2023-05-13T00:58:09.139Z,1.1
2023-05-13T00:59:18.824Z,1.4
2023-05-13T01:00:28.488Z,1.5
2023-05-13T01:01:37.211Z,1.6
2023-05-13T01:02:46.953Z,1.5
2023-05-13T01:03:56.553Z,1.1
2023-05-13T01:05:05.205Z,1.7
2023-05-13T01:06:14.852Z,1.4
2023-05-13T01:07:22.505Z,2
2023-05-13T01:08:32.195Z,1.6
2023-05-13T01:09:40.872Z,1.5
2023-05-13T01:10:49.526Z,1.1
2023-05-13T01:11:59.197Z,1.7
2023-05-13T01:13:08.879Z,1.1
2023-05-13T01:14:17.614Z,1.2
2023-05-13T01:15:27.220Z,2
2023-05-13T01:16:35.963Z,1.5
2023-05-13T01:17:45.713Z,1.7
2023-05-13T01:18:54.328Z,1.6
2023-05-13T01:20:01.964Z,1.3
2023-05-13T01:21:11.644Z,1.2
2023-05-13T01:22:20.342Z,1.4
2023-05-13T01:23:30.026Z,1
2023-05-13T01:24:39.696Z,1.4
2023-05-13T01:25:48.330Z,1.5
2023-05-13T01:26:58.013Z,1.6
2023-05-13T01:28:06.658Z,1.8
2023-05-13T01:29:15.312Z,1.4
2023-05-13T01:30:24.972Z,1.2
2023-05-13T01:31:34.692Z,1.5
2023-05-13T01:32:44.330Z,1.2
2023-05-13T01:33:53.958Z,1.3
2023-05-13T01:35:03.605Z,1.8
2023-05-13T01:36:13.313Z,1.3
2023-05-13T01:37:21.969Z,1
2023-05-13T01:38:29.636Z,1.7
2023-05-13T01:39:39.284Z,1.2
2023-05-13T01:40:47.946Z,1.9
2023-05-13T01:41:57.593Z,1.9
2023-05-13T01:43:07.274Z,2.5
2023-05-13T01:44:14.917Z,2.2
2023-05-13T01:45:24.630Z,1.2
2023-05-13T01:46:34.308Z,1.5
2023-05-13T01:47:42.991Z,1.8
2023-05-13T01:48:52.651Z,1.4
2023-05-13T01:50:02.351Z,1.4
2023-05-13T01:51:11.003Z,1
2023-05-13T01:52:20.650Z,1
2023-05-13T01:53:28.301Z,2.1
2023-05-13T01:54:38.016Z,2
2023-05-13T01:55:46.676Z,1.3
2023-05-13T01:56:56.375Z,1.4
2023-05-13T01:58:06.036Z,1.1
2023-05-13T01:59:14.734Z,1.7
2023-05-13T02:00:24.420Z,1.4
2023-05-13T02:01:34.111Z,1.3
2023-05-13T02:02:42.875Z,1.8
2023-05-13T02:03:52.483Z,1.4
2023-05-13T02:05:02.139Z,1.2
2023-05-13T02:06:11.833Z,1.1
2023-05-13T02:07:21.480Z,1.3
2023-05-13T02:08:29.133Z,1.1
2023-05-13T02:09:37.776Z,1.6
2023-05-13T02:10:47.415Z,1.1
2023-05-13T02:11:56.065Z,1.5
2023-05-13T02:13:05.771Z,1.8
2023-05-13T02:14:14.455Z,1.8
2023-05-13T02:15:23.106Z,1.7
2023-05-13T02:16:32.837Z,1.5
2023-05-13T02:17:42.516Z,1.4
2023-05-13T02:18:52.215Z,1.4
2023-05-13T02:20:01.850Z,1.6
2023-05-13T02:21:09.483Z,1.6
2023-05-13T02:22:19.177Z,1.5
2023-05-13T02:23:27.846Z,1.4
2023-05-13T02:24:36.513Z,1.6
2023-05-13T02:25:46.201Z,1.7
2023-05-13T02:26:55.883Z,1.3
2023-05-13T02:28:05.615Z,1.8
2023-05-13T02:29:15.280Z,2.4
2023-05-13T02:30:24.941Z,2.8
2023-05-13T02:31:34.662Z,2.5
2023-05-13T02:32:44.431Z,1.9
2023-05-13T02:33:53.014Z,1.7
2023-05-13T02:35:02.815Z,1.8
2023-05-13T02:36:11.471Z,1.9
2023-05-13T02:37:20.170Z,1.7
2023-05-13T02:38:29.833Z,2.2
2023-05-13T02:39:37.501Z,2.5
2023-05-13T02:40:47.143Z,2.4
2023-05-13T02:41:55.833Z,1.9
2023-05-13T02:43:04.514Z,2.2
2023-05-13T02:44:14.161Z,2.2
2023-05-13T02:45:22.814Z,2.1
2023-05-13T02:46:32.619Z,2
2023-05-13T02:47:42.232Z,2.3
2023-05-13T02:48:50.858Z,2.6
2023-05-13T02:50:00.504Z,1.9
2023-05-13T02:51:10.203Z,2.3
2023-05-13T02:52:18.878Z,2
2023-05-13T02:53:28.534Z,2.1
2023-05-13T02:54:38.169Z,2.6
2023-05-13T02:55:46.880Z,2.8
2023-05-13T02:56:56.575Z,2.4
2023-05-13T02:58:05.236Z,2.3
2023-05-13T02:59:14.907Z,2.1
2023-05-13T03:00:23.834Z,2.6
2023-05-13T03:01:33.287Z,2.7
2023-05-13T03:02:42.017Z,2.4
2023-05-13T03:03:49.636Z,2.3
2023-05-13T03:04:59.298Z,2.9
2023-05-13T03:06:09.011Z,2.3
2023-05-13T03:07:17.685Z,2.8
2023-05-13T03:08:26.311Z,2.4
2023-05-13T03:09:35.027Z,2.8
2023-05-13T03:10:44.697Z,2.5
2023-05-13T03:11:53.368Z,2.3
2023-05-13T03:13:03.031Z,2.2
2023-05-13T03:14:12.727Z,2.4
2023-05-13T03:15:22.408Z,2.4
2023-05-13T03:16:31.115Z,2
2023-05-13T03:17:40.749Z,2.2
2023-05-13T03:18:50.423Z,2.2
2023-05-13T03:20:00.165Z,2.9
2023-05-13T03:21:09.798Z,3.2
2023-05-13T03:22:19.498Z,2.3
2023-05-13T03:23:29.215Z,2.6
2023-05-13T03:24:37.891Z,2.2
2023-05-13T03:25:47.533Z,2.3
2023-05-13T03:26:57.223Z,2
2023-05-13T03:28:06.889Z,1.4
2023-05-13T03:29:16.581Z,2.1
2023-05-13T03:30:25.318Z,2.1
2023-05-13T03:31:34.045Z,2.1
2023-05-13T03:32:43.715Z,2.2
2023-05-13T03:33:51.357Z,2.5
2023-05-13T03:35:01.028Z,1.9
2023-05-13T03:36:10.708Z,1.8
2023-05-13T03:37:19.351Z,1.9
2023-05-13T03:38:29.067Z,2.3
2023-05-13T03:39:38.876Z,1.7
2023-05-13T03:40:46.407Z,1.9
2023-05-13T03:41:56.054Z,1.9
2023-05-13T03:43:04.777Z,1.8
2023-05-13T03:44:13.431Z,1.5
2023-05-13T03:45:22.108Z,1.7
2023-05-13T03:46:29.761Z,1.7
2023-05-13T03:47:39.498Z,2.1
2023-05-13T03:48:48.092Z,2.6
2023-05-13T03:49:56.761Z,2.8
2023-05-13T03:51:06.422Z,2.5
2023-05-13T03:52:13.133Z,2.3
2023-05-13T03:53:22.855Z,2.3
2023-05-13T03:54:31.479Z,2
2023-05-13T03:55:40.172Z,2.7
2023-05-13T03:56:49.892Z,2.7
2023-05-13T03:57:58.537Z,2.5
2023-05-13T03:59:08.204Z,3.3
2023-05-13T04:00:17.856Z,2.7
2023-05-13T04:01:25.539Z,2.3
2023-05-13T04:02:33.300Z,2.6
2023-05-13T04:03:42.895Z,1.8
2023-05-13T04:04:51.588Z,1.9
2023-05-13T04:06:01.255Z,2.3
2023-05-13T04:07:10.003Z,2
2023-05-13T04:08:19.666Z,2.2
2023-05-13T04:09:28.322Z,2.8
2023-05-13T04:10:36.068Z,2.5
2023-05-13T04:11:45.756Z,2.1
2023-05-13T04:12:55.440Z,2
2023-05-13T04:14:04.186Z,2.5
2023-05-13T04:15:13.887Z,2.2
2023-05-13T04:16:23.555Z,1.7
2023-05-13T04:17:32.242Z,2.6
2023-05-13T04:18:40.878Z,2.7
2023-05-13T04:19:49.533Z,1.8
2023-05-13T04:20:59.218Z,1.8
2023-05-13T04:22:08.927Z,1.8
2023-05-13T04:23:17.573Z,2.3
2023-05-13T04:24:27.269Z,1.6
2023-05-13T04:25:36.988Z,1.6
2023-05-13T04:26:45.650Z,1.1
2023-05-13T04:27:55.330Z,1
2023-05-13T04:29:03.969Z,1.1
2023-05-13T04:30:13.667Z,1.2
2023-05-13T04:31:23.370Z,1.2
2023-05-13T04:32:32.019Z,1.3
2023-05-13T04:33:41.728Z,1.2
2023-05-13T04:34:50.418Z,0.8
2023-05-13T04:35:59.112Z,1.2
2023-05-13T04:37:08.773Z,1.4
2023-05-13T04:38:16.467Z,0.9
2023-05-13T04:39:26.168Z,1
2023-05-13T04:40:35.825Z,1.1
2023-05-13T04:41:43.508Z,1.4
2023-05-13T04:42:52.184Z,1.1
2023-05-13T04:43:59.895Z,1.1
2023-05-13T04:45:09.517Z,1.3
2023-05-13T04:46:18.251Z,1.3
2023-05-13T04:47:27.912Z,1.2
2023-05-13T04:48:37.582Z,0.7
2023-05-13T04:49:46.236Z,0.9
2023-05-13T04:50:54.930Z,1.3
2023-05-13T04:52:04.594Z,0.9
2023-05-13T04:53:14.250Z,1
2023-05-13T04:54:23.929Z,0.9
2023-05-13T04:55:33.577Z,0.8
2023-05-13T04:56:41.292Z,1.4
2023-05-13T04:57:50.961Z,0.9
2023-05-13T04:59:00.636Z,0.9
2023-05-13T05:00:10.308Z,0.9
2023-05-13T05:01:19.026Z,1.1
2023-05-13T05:02:28.706Z,1.3
2023-05-13T05:03:38.401Z,0.8
2023-05-13T05:04:46.032Z,0.8
2023-05-13T05:05:55.712Z,1
2023-05-13T05:07:04.390Z,0.8
2023-05-13T05:08:12.080Z,0.9
2023-05-13T05:09:21.766Z,0.7
2023-05-13T05:10:31.413Z,0.8
2023-05-13T05:11:40.101Z,0.9
2023-05-13T05:12:49.759Z,0.9
2023-05-13T05:13:57.446Z,1.1
2023-05-13T05:15:07.141Z,1.7
2023-05-13T05:16:16.848Z,1.4
2023-05-13T05:17:24.527Z,1.4
2023-05-13T05:18:34.187Z,0.9
2023-05-13T05:19:42.846Z,1
2023-05-13T05:20:51.541Z,1.5
2023-05-13T05:22:01.213Z,1.9
2023-05-13T05:23:08.870Z,1.8
2023-05-13T05:24:18.529Z,1.5
2023-05-13T05:25:28.208Z,1.7
2023-05-13T05:26:36.861Z,2
2023-05-13T05:27:46.521Z,1.7
2023-05-13T05:28:56.175Z,2.3
2023-05-13T05:30:04.879Z,1.5
2023-05-13T05:31:14.593Z,2.3
2023-05-13T05:32:23.380Z,1.6
2023-05-13T05:33:32.962Z,1.7
2023-05-13T05:34:42.703Z,1
2023-05-13T05:35:50.357Z,0.8
2023-05-13T05:37:00.056Z,0.8
2023-05-13T05:38:09.720Z,0.9
2023-05-13T05:39:19.406Z,1
2023-05-13T05:40:29.076Z,0.8
2023-05-13T05:41:36.743Z,1.4
2023-05-13T05:42:46.404Z,1.8
2023-05-13T05:43:56.205Z,1.9
2023-05-13T05:45:05.880Z,1.8
2023-05-13T05:46:15.628Z,1.2
2023-05-13T05:47:24.283Z,1.9
2023-05-13T05:48:34.689Z,0.8
2023-05-13T05:49:43.684Z,1.5
2023-05-13T05:50:52.337Z,1.4
2023-05-13T05:52:01.987Z,1.2
2023-05-13T05:53:10.682Z,0.9
2023-05-13T05:54:19.370Z,1.1
2023-05-13T05:55:29.071Z,1.1
2023-05-13T05:56:36.739Z,1
2023-05-13T05:57:45.430Z,1.1
2023-05-13T05:58:55.151Z,0.9
2023-05-13T06:00:02.825Z,1.6
2023-05-13T06:01:12.501Z,1.2
2023-05-13T06:02:22.231Z,1.2
2023-05-13T06:03:30.957Z,1.4
2023-05-13T06:04:40.671Z,1.3
2023-05-13T06:05:49.236Z,1.4
2023-05-13T06:06:58.946Z,1.3
2023-05-13T06:08:08.634Z,1.3
2023-05-13T06:09:17.303Z,1.1
2023-05-13T06:10:26.962Z,1.6
2023-05-13T06:11:35.726Z,1.4
2023-05-13T06:12:44.404Z,1.7
2023-05-13T06:13:54.109Z,1.3
2023-05-13T06:15:03.770Z,1.8
2023-05-13T06:16:13.484Z,1.4
2023-05-13T06:17:23.163Z,1.7
2023-05-13T06:18:30.833Z,2
2023-05-13T06:19:40.480Z,1.5
2023-05-13T06:20:50.175Z,1.8
2023-05-13T06:21:57.836Z,1.2
2023-05-13T06:23:07.500Z,1.6
2023-05-13T06:24:15.154Z,1.5
2023-05-13T06:25:23.824Z,1.7
2023-05-13T06:26:33.573Z,1.2
2023-05-13T06:27:41.217Z,1.3
2023-05-13T06:28:50.907Z,1.7
2023-05-13T06:29:59.550Z,1.8
2023-05-13T06:31:08.253Z,1.4
2023-05-13T06:32:17.897Z,1.5
2023-05-13T06:33:26.599Z,1.4
2023-05-13T06:34:36.237Z,1.6
2023-05-13T06:35:45.968Z,1.7
2023-05-13T06:36:53.695Z,1.5
2023-05-13T06:38:03.307Z,1.3
2023-05-13T06:39:11.962Z,1.7
2023-05-13T06:40:19.909Z,1.5
2023-05-13T06:41:29.346Z,1.3
2023-05-13T06:42:39.006Z,1.6
2023-05-13T06:43:47.645Z,1.2
2023-05-13T06:44:57.340Z,1.3
2023-05-13T06:46:05.005Z,1.5
2023-05-13T06:47:14.865Z,0.9
2023-05-13T06:48:23.327Z,1
2023-05-13T06:49:33.056Z,1.3
2023-05-13T06:50:42.759Z,0.9
2023-05-13T06:51:51.398Z,0.9
2023-05-13T06:53:01.098Z,0.8
2023-05-13T06:54:10.781Z,1
2023-05-13T06:55:19.473Z,1
2023-05-13T06:56:29.135Z,1
2023-05-13T06:57:42.755Z,0.9
2023-05-13T06:58:49.468Z,1.3
2023-05-13T06:59:58.159Z,1.2
2023-05-13T07:01:05.845Z,1.5
2023-05-13T07:02:15.494Z,1.1
2023-05-13T07:03:23.211Z,1.2
2023-05-13T07:04:31.897Z,1.4
2023-05-13T07:05:41.566Z,1.5
2023-05-13T07:06:51.238Z,1.3
2023-05-13T07:08:00.944Z,1.4
2023-05-13T07:09:10.622Z,1.3
2023-05-13T07:10:19.297Z,1.7
2023-05-13T07:11:28.903Z,1
2023-05-13T07:12:36.555Z,1.8
2023-05-13T07:13:45.255Z,1.6
2023-05-13T07:14:54.898Z,1.4
2023-05-13T07:16:03.547Z,1.3
2023-05-13T07:17:13.236Z,1.1
2023-05-13T07:18:23.061Z,1.6
2023-05-13T07:19:32.642Z,1.5
2023-05-13T07:20:42.283Z,1.4
2023-05-13T07:21:49.982Z,1.5
2023-05-13T07:22:58.776Z,1.2
2023-05-13T07:24:08.418Z,1
2023-05-13T07:25:16.082Z,1.3
2023-05-13T07:26:26.722Z,1.1
2023-05-13T07:27:36.432Z,1.3
2023-05-13T07:28:45.161Z,1.3
2023-05-13T07:29:54.821Z,1.3
2023-05-13T07:31:02.545Z,1
2023-05-13T07:32:11.226Z,1.3
2023-05-13T07:33:20.883Z,1.1
2023-05-13T07:34:29.558Z,1
2023-05-13T07:35:39.228Z,1.4
2023-05-13T07:36:48.968Z,1.3
2023-05-13T07:37:57.644Z,1.4
2023-05-13T07:39:07.291Z,1.3
2023-05-13T07:40:15.954Z,1.3
2023-05-13T07:41:23.661Z,1.2
2023-05-13T07:42:33.289Z,1.2
2023-05-13T07:43:42.937Z,1.2
2023-05-13T07:44:52.589Z,1.1
2023-05-13T07:46:02.244Z,1.3
2023-05-13T07:47:12.684Z,1.3
2023-05-13T07:48:22.579Z,0.9
2023-05-13T07:49:32.225Z,1.2
2023-05-13T07:50:41.947Z,1.2
2023-05-13T07:51:51.615Z,1.3
2023-05-13T07:53:00.289Z,1.3
2023-05-13T07:54:10.942Z,1.3
2023-05-13T07:55:19.655Z,1.1
2023-05-13T07:56:29.291Z,1
2023-05-13T07:57:38.920Z,1.1
2023-05-13T07:58:48.558Z,1.3
2023-05-13T07:59:57.231Z,1
2023-05-13T08:01:06.872Z,1
2023-05-13T08:02:15.537Z,1.4
2023-05-13T08:03:25.325Z,1.1
2023-05-13T08:04:33.922Z,1.3
2023-05-13T08:05:41.563Z,1
2023-05-13T08:06:51.224Z,1.2
2023-05-13T08:07:58.874Z,1.1
2023-05-13T08:09:07.622Z,1.3
2023-05-13T08:10:16.280Z,1.6
2023-05-13T08:11:25.981Z,1.3
2023-05-13T08:12:35.668Z,1.3
2023-05-13T08:13:45.295Z,1.5
2023-05-13T08:14:54.984Z,1.5
2023-05-13T08:16:04.674Z,1.1
2023-05-13T08:17:14.297Z,1.5
2023-05-13T08:18:21.986Z,1.2
2023-05-13T08:19:31.710Z,0.9
2023-05-13T08:20:40.349Z,1.8
2023-05-13T08:21:49.998Z,1.8
2023-05-13T08:22:58.722Z,1.3
2023-05-13T08:24:06.381Z,1.3
2023-05-13T08:25:16.171Z,1.4
2023-05-13T08:26:24.905Z,1.6
2023-05-13T08:27:33.557Z,1.1
2023-05-13T08:28:43.262Z,1.4
2023-05-13T08:29:52.912Z,1.6
2023-05-13T08:31:02.567Z,1.3
2023-05-13T08:32:11.395Z,1.2
2023-05-13T08:33:19.949Z,1.3
2023-05-13T08:34:29.604Z,1.5
2023-05-13T08:35:38.259Z,1.4
2023-05-13T08:36:46.912Z,1.3
2023-05-13T08:37:56.715Z,1.1
2023-05-13T08:39:06.389Z,1
2023-05-13T08:40:16.046Z,1.1
2023-05-13T08:41:25.717Z,1.2
2023-05-13T08:42:33.386Z,1.2
2023-05-13T08:43:43.076Z,1.3
2023-05-13T08:44:52.775Z,1.4
2023-05-13T08:46:02.454Z,1.2
2023-05-13T08:47:12.131Z,0.9
2023-05-13T08:48:20.783Z,1.3
2023-05-13T08:49:30.500Z,1.2
2023-05-13T08:50:40.148Z,1.2
2023-05-13T08:51:47.835Z,0.9
2023-05-13T08:52:57.471Z,1.1
2023-05-13T08:54:06.113Z,1.1
2023-05-13T08:55:15.756Z,1.2
2023-05-13T08:56:24.452Z,0.9
2023-05-13T08:57:34.146Z,1.1
2023-05-13T08:58:43.813Z,1.2
2023-05-13T08:59:53.482Z,1.2
2023-05-13T09:01:03.979Z,1.1
2023-05-13T09:02:12.601Z,1.3
2023-05-13T09:03:21.266Z,1.2
2023-05-13T09:04:30.949Z,0.9
2023-05-13T09:05:39.606Z,1.3
2023-05-13T09:06:49.260Z,1
2023-05-13T09:07:58.916Z,1.1
2023-05-13T09:09:07.609Z,1
2023-05-13T09:10:17.302Z,1.1
2023-05-13T09:11:26.979Z,1.3
2023-05-13T09:12:34.721Z,0.7
2023-05-13T09:13:44.384Z,0.9
2023-05-13T09:14:53.005Z,1.1
2023-05-13T09:16:02.775Z,0.9
2023-05-13T09:17:12.436Z,1
2023-05-13T09:18:22.062Z,1
2023-05-13T09:19:31.843Z,1.2
2023-05-13T09:20:40.452Z,0.9
2023-05-13T09:21:48.098Z,0.7
2023-05-13T09:22:57.757Z,0.8
2023-05-13T09:25:16.081Z,1.4
2023-05-13T09:26:25.728Z,0.9
2023-05-13T09:27:34.383Z,0.9
2023-05-13T09:28:44.047Z,0.7
2023-05-13T09:29:52.722Z,0.9
2023-05-13T09:31:00.386Z,0.7
2023-05-13T09:32:10.055Z,0.8
2023-05-13T09:33:17.758Z,0.9
2023-05-13T09:34:26.401Z,1.3
2023-05-13T09:35:36.079Z,0.8
2023-05-13T09:36:44.754Z,1
2023-05-13T09:37:54.417Z,1.4
2023-05-13T09:39:03.113Z,1
2023-05-13T09:40:11.850Z,0.8
2023-05-13T09:41:21.498Z,1
2023-05-13T09:42:30.156Z,0.9
2023-05-13T09:43:39.941Z,1.2
2023-05-13T09:44:49.637Z,0.9
2023-05-13T09:45:57.274Z,0.8
2023-05-13T09:47:08.101Z,0.7
2023-05-13T09:48:16.752Z,1.3
2023-05-13T09:49:25.473Z,1.3
2023-05-13T09:50:35.125Z,0.8
2023-05-13T09:51:43.792Z,0.7
2023-05-13T09:52:52.480Z,0.7
2023-05-13T09:54:02.138Z,1.2
2023-05-13T09:55:11.815Z,0.7
2023-05-13T09:56:21.486Z,0.9
2023-05-13T09:57:31.182Z,0.5
2023-05-13T09:58:39.882Z,0.7
2023-05-13T09:59:49.560Z,0.7
2023-05-13T10:00:57.262Z,0.7
2023-05-13T10:02:05.937Z,0.6
2023-05-13T10:03:15.661Z,0.8
2023-05-13T10:04:24.343Z,0.5
2023-05-13T10:05:34.024Z,0.7
2023-05-13T10:06:43.661Z,0.7
2023-05-13T10:07:52.354Z,0.7
2023-05-13T10:09:02.108Z,0.6
2023-05-13T10:10:09.795Z,0.8
2023-05-13T10:11:19.469Z,0.4
2023-05-13T10:12:29.117Z,0.6
2023-05-13T10:13:37.820Z,0.4
2023-05-13T10:14:47.463Z,0.6
2023-05-13T10:15:57.140Z,0.8
2023-05-13T10:17:05.863Z,0.7
2023-05-13T10:18:15.475Z,0.4
2023-05-13T10:19:25.555Z,0.5
2023-05-13T10:20:35.273Z,0.7
2023-05-13T10:21:45.098Z,0.6
2023-05-13T10:22:53.762Z,0.6
2023-05-13T10:24:03.451Z,0.4
2023-05-13T10:25:13.089Z,0.6
2023-05-13T10:26:21.775Z,0.7
2023-05-13T10:27:31.456Z,0.4
2023-05-13T10:28:40.145Z,0.6
2023-05-13T10:29:49.797Z,0.6
2023-05-13T10:30:59.465Z,0.7
2023-05-13T10:32:07.134Z,0.5
2023-05-13T10:33:16.817Z,0.5
2023-05-13T10:34:25.496Z,0.4
2023-05-13T10:35:36.095Z,0.9
2023-05-13T10:36:44.858Z,0.5
2023-05-13T10:37:53.641Z,0.7
2023-05-13T10:39:02.301Z,0.7
2023-05-13T10:40:12.026Z,0.4
2023-05-13T10:41:19.689Z,0.6
2023-05-13T10:42:29.342Z,0.6
2023-05-13T10:43:38.990Z,0.5
2023-05-13T10:44:46.671Z,0.7
2023-05-13T10:45:56.398Z,0.6
2023-05-13T10:47:05.016Z,0.5
2023-05-13T10:48:14.800Z,0.4
2023-05-13T10:49:24.361Z,0.6
2023-05-13T10:50:32.008Z,1
2023-05-13T10:51:41.687Z,0.9
2023-05-13T10:52:51.343Z,0.9
2023-05-13T10:54:01.085Z,0.8
2023-05-13T10:55:09.715Z,1
2023-05-13T10:56:19.497Z,0.6
2023-05-13T10:57:29.125Z,0.5
2023-05-13T10:58:36.917Z,0.7
2023-05-13T10:59:45.560Z,1.1
2023-05-13T11:00:55.222Z,0.8
2023-05-13T11:02:04.049Z,1
2023-05-13T11:03:13.834Z,0.5
2023-05-13T11:04:23.316Z,0.5
2023-05-13T11:05:32.984Z,0.5
2023-05-13T11:06:42.670Z,0.6
2023-05-13T11:07:52.340Z,0.4
2023-05-13T11:09:02.016Z,0.4
2023-05-13T11:10:11.718Z,0.6
2023-05-13T11:11:20.372Z,0.4
2023-05-13T11:12:30.052Z,0.3
2023-05-13T11:13:39.720Z,0.5
2023-05-13T11:14:48.378Z,0.6
2023-05-13T11:15:58.052Z,0.8
2023-05-13T11:17:06.768Z,0.6
2023-05-13T11:18:15.470Z,0.7
2023-05-13T11:19:25.102Z,0.5
2023-05-13T11:20:45.424Z,0.5
2023-05-13T11:21:45.442Z,0.5
2023-05-13T11:22:55.122Z,0.5
2023-05-13T11:24:03.791Z,0.5
2023-05-13T11:25:13.446Z,0.6
2023-05-13T11:26:22.153Z,0.6
2023-05-13T11:27:30.831Z,0.5
2023-05-13T11:28:40.479Z,0.6
2023-05-13T11:29:50.147Z,0.4
2023-05-13T11:30:59.948Z,0.3
2023-05-13T11:32:09.597Z,0.2
2023-05-13T11:33:18.292Z,0.6
2023-05-13T11:34:28.013Z,0.4
2023-05-13T11:35:35.744Z,0.5
2023-05-13T11:36:44.440Z,0.4
2023-05-13T11:37:54.106Z,0.6
2023-05-13T11:39:02.866Z,0.4
2023-05-13T11:40:12.586Z,0.6
2023-05-13T11:41:22.329Z,0.5
2023-05-13T11:42:32.071Z,0.6
2023-05-13T11:43:41.721Z,0.3
2023-05-13T11:44:51.415Z,0.4
2023-05-13T11:46:01.132Z,0.5
2023-05-13T11:47:10.776Z,0.6
2023-05-13T11:48:20.426Z,0.2
2023-05-13T11:49:30.153Z,0.6
2023-05-13T11:50:38.884Z,0.7
2023-05-13T11:51:47.553Z,0.9
2023-05-13T11:52:57.200Z,0.6
2023-05-13T11:54:05.957Z,0.7
2023-05-13T11:55:15.643Z,0.5
2023-05-13T11:56:25.286Z,0.8
2023-05-13T11:57:32.999Z,0.7
2023-05-13T11:58:42.645Z,0.7
2023-05-13T11:59:52.295Z,0.9
2023-05-13T12:01:00.966Z,0.7
2023-05-13T12:02:10.684Z,0.5
2023-05-13T12:03:19.307Z,0.6
2023-05-13T12:04:27.960Z,1
2023-05-13T12:05:37.761Z,0.3
2023-05-13T12:06:46.266Z,0.3
2023-05-13T12:07:55.937Z,0.4
2023-05-13T12:09:03.617Z,0.3
2023-05-13T12:10:11.284Z,0.3
2023-05-13T12:11:19.937Z,0.3
2023-05-13T12:12:29.596Z,0.4
2023-05-13T12:13:38.283Z,0.4
2023-05-13T12:14:47.971Z,0.4
2023-05-13T12:15:55.632Z,0.2
2023-05-13T12:17:05.252Z,0.7
2023-05-13T12:18:15.039Z,0.5
2023-05-13T12:19:23.705Z,0.2
2023-05-13T12:20:33.358Z,0.3
2023-05-13T12:21:43.010Z,0.4
2023-05-13T12:22:51.741Z,0.6
2023-05-13T12:24:01.451Z,0.5
2023-05-13T12:25:10.127Z,0.4
2023-05-13T12:26:19.831Z,0.5
2023-05-13T12:27:29.588Z,0.5
2023-05-13T12:28:37.221Z,0.3
2023-05-13T12:29:46.898Z,0.6
2023-05-13T12:30:55.624Z,0.3
2023-05-13T12:32:04.262Z,0.4
2023-05-13T12:33:13.935Z,0.3
2023-05-13T12:34:21.622Z,0.3
2023-05-13T12:35:31.257Z,0.5
2023-05-13T12:36:40.053Z,0.4
2023-05-13T12:37:49.700Z,0.3
2023-05-13T12:39:00.365Z,0.5
2023-05-13T12:40:09.022Z,0.7
2023-05-13T12:41:17.705Z,0.6
2023-05-13T12:42:27.399Z,0.6
2023-05-13T12:43:36.078Z,0.6
2023-05-13T12:44:45.743Z,0.6
2023-05-13T12:45:55.428Z,0.6
2023-05-13T12:47:05.200Z,0.4
2023-05-13T12:48:14.820Z,0.6
2023-05-13T12:49:24.490Z,0.9
2023-05-13T12:50:33.139Z,0.5
2023-05-13T12:51:42.921Z,0.9
2023-05-13T12:52:50.558Z,0.4
2023-05-13T12:54:00.231Z,0.7
2023-05-13T12:55:09.929Z,0.7
2023-05-13T12:56:18.599Z,0.4
2023-05-13T12:57:28.830Z,0.3
2023-05-13T12:58:37.965Z,0.5
2023-05-13T12:59:47.680Z,0.5
2023-05-13T13:00:57.374Z,0.5
2023-05-13T13:02:04.997Z,0.4
2023-05-13T13:03:14.798Z,0.5
2023-05-13T13:04:24.373Z,0.4
2023-05-13T13:05:33.092Z,0.5
2023-05-13T13:06:42.769Z,0.5
2023-05-13T13:07:52.436Z,0.6
2023-05-13T13:09:00.127Z,0.4
2023-05-13T13:10:09.830Z,0.4
2023-05-13T13:11:17.457Z,0.5
2023-05-13T13:12:26.137Z,0.6
2023-05-13T13:13:38.219Z,0.4
2023-05-13T13:14:44.523Z,0.4
2023-05-13T13:15:53.184Z,0.4
2023-05-13T13:17:02.871Z,0.5
2023-05-13T13:18:11.572Z,0.4
2023-05-13T13:19:19.259Z,0.4
2023-05-13T13:20:26.935Z,0.6
2023-05-13T13:21:36.615Z,0.4
2023-05-13T13:22:46.299Z,0.4
2023-05-13T13:23:54.010Z,0.6
2023-05-13T13:25:03.710Z,0.7
2023-05-13T13:26:11.366Z,0.4
2023-05-13T13:27:21.046Z,0.6
2023-05-13T13:28:30.705Z,0.5
2023-05-13T13:29:40.369Z,0.5
2023-05-13T13:30:50.093Z,0.6
2023-05-13T13:31:57.845Z,0.6
2023-05-13T13:33:06.473Z,0.5
2023-05-13T13:34:16.170Z,0.7
2023-05-13T13:35:23.981Z,0.6
2023-05-13T13:36:33.478Z,0.7
2023-05-13T13:37:43.155Z,0.7
2023-05-13T13:38:51.840Z,0.6
2023-05-13T13:40:01.511Z,0.7
2023-05-13T13:41:11.164Z,0.5
2023-05-13T13:42:21.329Z,0.7
2023-05-13T13:43:30.608Z,0.7
2023-05-13T13:44:39.269Z,1.1
2023-05-13T13:45:48.971Z,1.1
2023-05-13T13:46:58.627Z,1.5
2023-05-13T13:48:08.427Z,0.6
2023-05-13T13:49:23.544Z,2
2023-05-13T13:50:27.616Z,0.6
2023-05-13T13:51:36.253Z,0.7
2023-05-13T13:52:46.058Z,1
2023-05-13T13:53:53.729Z,0.5
2023-05-13T13:55:03.357Z,0.4
2023-05-13T13:56:13.042Z,0.9
2023-05-13T13:57:22.710Z,0.7
2023-05-13T13:58:32.380Z,0.6
2023-05-13T13:59:40.055Z,0.5
2023-05-13T14:00:49.811Z,0.5
2023-05-13T14:01:59.539Z,0.3
2023-05-13T14:03:07.307Z,0.4
2023-05-13T14:04:16.840Z,0.5
2023-05-13T14:05:25.569Z,0.4
2023-05-13T14:06:34.338Z,0.4
2023-05-13T14:07:43.972Z,0.6
2023-05-13T14:08:52.635Z,0.3
2023-05-13T14:10:02.281Z,0.2
2023-05-13T14:11:12.018Z,0.3
2023-05-13T14:12:22.677Z,0.3
2023-05-13T14:13:32.328Z,1
2023-05-13T14:14:42.091Z,1.3
2023-05-13T14:15:49.800Z,1.2
2023-05-13T14:16:59.463Z,1.1
2023-05-13T14:18:08.168Z,0.9
2023-05-13T14:19:17.776Z,0.8
2023-05-13T14:20:27.428Z,0.8
2023-05-13T14:21:35.114Z,0.2
2023-05-13T14:22:44.826Z,0.3
2023-05-13T14:23:53.449Z,0.4
2023-05-13T14:25:03.169Z,0.4
2023-05-13T14:26:12.842Z,0.4
2023-05-13T14:27:22.492Z,0.4
2023-05-13T14:28:32.166Z,0.2
2023-05-13T14:29:41.880Z,0.3
2023-05-13T14:30:50.647Z,0.4
2023-05-13T14:32:00.365Z,0.4
2023-05-13T14:33:10.008Z,0.3
2023-05-13T14:34:18.676Z,0.2
2023-05-13T14:35:28.323Z,0.2
2023-05-13T14:36:38.025Z,0.2
2023-05-13T14:37:47.709Z,0.2
2023-05-13T14:38:57.346Z,0.2
2023-05-13T14:40:06.033Z,0.2
2023-05-13T14:41:15.795Z,0.2
2023-05-13T14:42:25.744Z,0.2
2023-05-13T14:43:34.487Z,0.3
2023-05-13T14:44:44.198Z,0.2
2023-05-13T14:45:52.850Z,0.1
2023-05-13T14:47:01.670Z,0.1
2023-05-13T14:48:11.277Z,0.3
2023-05-13T14:49:18.871Z,0.1
2023-05-13T14:50:28.530Z,0.2
2023-05-13T14:51:38.489Z,0.1
2023-05-13T14:52:48.131Z,0.1
2023-05-13T14:53:57.863Z,0.1
2023-05-13T14:55:06.488Z,0.1
2023-05-13T14:56:16.131Z,0.2
2023-05-13T14:57:25.792Z,0
2023-05-13T14:58:35.527Z,0.1
2023-05-13T14:59:45.188Z,0.1
2023-05-13T15:00:53.996Z,0.1
2023-05-13T15:02:01.576Z,0.1
2023-05-13T15:03:11.274Z,0.1
2023-05-13T15:04:19.912Z,0
2023-05-13T15:05:29.574Z,0.1
2023-05-13T15:06:39.186Z,0
2023-05-13T15:07:47.911Z,0
2023-05-13T15:08:57.551Z,0
2023-05-13T15:10:07.237Z,0.1
2023-05-13T15:11:14.910Z,0
2023-05-13T15:12:24.599Z,0.1
2023-05-13T15:13:32.268Z,0.1
2023-05-13T15:14:41.925Z,0
2023-05-13T15:15:51.718Z,0
2023-05-13T15:17:01.508Z,0.1
2023-05-13T15:18:11.117Z,0.1
2023-05-13T15:19:19.765Z,0.1
2023-05-13T15:20:27.429Z,0.1
2023-05-13T15:21:37.153Z,0.1
2023-05-13T15:22:45.823Z,0.1
2023-05-13T15:23:55.526Z,0.1
2023-05-13T15:25:03.186Z,0.1
2023-05-13T15:26:11.920Z,0
2023-05-13T15:27:21.590Z,0.2
2023-05-13T15:28:31.293Z,0.1
2023-05-13T15:29:40.977Z,0.1
2023-05-13T15:30:50.657Z,0.2
2023-05-13T15:31:58.321Z,0.3
2023-05-13T15:33:08.042Z,0.1
2023-05-13T15:34:15.696Z,0.2
2023-05-13T15:35:25.382Z,0.1
2023-05-13T15:36:35.106Z,0.1
2023-05-13T15:37:42.792Z,0.1
2023-05-13T15:38:52.441Z,0.1
2023-05-13T15:40:02.103Z,0
2023-05-13T15:41:10.802Z,0.1
2023-05-13T15:42:20.490Z,0.2
2023-05-13T15:43:29.132Z,0.1
2023-05-13T15:44:38.939Z,0.1
2023-05-13T15:45:48.562Z,0
2023-05-13T15:46:57.233Z,0.1
2023-05-13T15:48:06.864Z,0.1
2023-05-13T15:49:15.504Z,0.1
2023-05-13T15:50:25.218Z,0.2
2023-05-13T15:51:34.889Z,0.1
2023-05-13T15:52:42.554Z,0.2
2023-05-13T15:53:52.219Z,0.1
2023-05-13T15:55:01.970Z,0
2023-05-13T15:56:10.653Z,0.3
2023-05-13T15:57:20.308Z,0.3
2023-05-13T15:58:29.988Z,0.1